• Join FlightAware (Why Join?)
  • Login
  • US Flag 
09:02PM EST


 

Airport Tracker/Info


-or-


 

Live Flight TrackerFlight Track Log ✈ SKW6492 ✈ 07-Jul-2013 ✈ KDEN - KCOD

Flight Track Log - Related Links

Times and Time Zones

All times are in EDT time to prevent confusion due to time zone crossing. See the SKW6492 flight status page for this flight to view local times or setup timezone preferences in your user account.

Time Position Orientation Groundspeed Altitude Reporting Facility
EDT Latitude Longitude Course Direction KTS MPH feet Rate Location/Type
09:46PM 39.8667 -104.8000 348° North 222 255 7,600  Level Denver TRACON
09:47PM 39.9000 -104.8833 298° West 287 330 9,500 1,920 Climbing Denver TRACON
09:48PM 40.1709 -104.7729 347° North  Level FlightAware Approximate
09:48PM 39.9667 -104.9333 330° Northwest 306 352 11,500  Level Denver TRACON
09:49PM 40.2786 -104.8052 347° North  Level FlightAware Approximate
09:49PM 40.0667 -104.9333 360° North 331 381 13,100  Level Denver TRACON
09:50PM 40.3860 -104.8398 346° North  Level FlightAware Approximate
09:50PM 40.1333 -104.9167 11° North 335 386 14,800  Level Denver TRACON
09:51PM 40.4932 -104.8755 346° North  Level FlightAware Approximate
09:52PM 40.6011 -104.9074 348° North  Level FlightAware Approximate
09:52PM 40.2819 -104.9069 North 344 396 17,200  Level Denver Center
09:53PM 40.3825 -104.8944 North 363 418 18,600 1,140 Climbing Denver Center
09:54PM 40.4686 -104.8881 North 369 425 19,600 1,200 Climbing Denver Center
09:55PM 40.5986 -104.8722 North 380 437 21,100 1,200 Climbing Denver Center
09:56PM 40.7142 -104.8631 North 387 445 22,200 1,020 Climbing Denver Center
09:57PM 40.8253 -104.8694 358° North 388 447 23,300 900 Climbing Denver Center
09:58PM 40.9253 -104.9164 340° North 383 441 24,100 720 Climbing Denver Center
09:59PM 41.0219 -104.9661 339° North 390 449 24,900 780 Climbing Denver Center
10:00PM 41.1383 -105.0214 340° North 398 458 25,800 780 Climbing Denver Center
10:01PM 41.2378 -105.0717 339° North 399 459 26,600 720 Climbing Denver Center
10:02PM 41.3542 -105.1294 340° North 399 459 27,300 660 Climbing Denver Center
10:03PM 41.4553 -105.1825 339° North 405 466 28,000 540 Climbing Denver Center
10:04PM 41.5581 -105.2342 339° North 410 472 28,500 480 Climbing Denver Center
10:05PM 41.6597 -105.3383 323° Northwest 416 479 29,000 480 Climbing Denver Center
10:06PM 41.7456 -105.4325 321° Northwest 416 479 29,500 480 Climbing Denver Center
10:07PM 41.8464 -105.5414 321° Northwest 416 479 30,100 480 Climbing Denver Center
10:08PM 41.9331 -105.6353 321° Northwest 417 480 30,600 480 Climbing Denver Center
10:09PM 42.0333 -105.7450 321° Northwest 416 479 31,100 480 Climbing Denver Center
10:10PM 42.1178 -105.8394 320° Northwest 413 475 31,600 420 Climbing Denver Center
10:11PM 42.2042 -105.9339 321° Northwest 416 479 32,000 180 Climbing Denver Center
10:12PM 42.3042 -106.0453 321° Northwest 415 478 32,000  Level Denver Center
10:13PM 42.3928 -106.1436 321° Northwest 425 489 32,000  Level Denver Center
10:14PM 42.4936 -106.2583 320° Northwest 423 487 32,000  Level Denver Center
10:15PM 42.5825 -106.3556 321° Northwest 427 491 32,000  Level Denver Center
10:16PM 42.6856 -106.4719 320° Northwest 429 494 32,000 -300 Level Denver Center
10:18PM 42.7722 -106.5703 320° Northwest 428 493 31,400 -780 Descending Denver Center
10:19PM 42.8608 -106.6717 320° Northwest 432 497 30,500 -720 Descending Denver Center
10:20PM 42.9614 -106.7847 321° Northwest 421 484 30,000 -300 Descending Denver Center
10:21PM 43.0444 -106.8811 320° Northwest 413 475 30,000  Level Denver Center
10:21PM 43.1233 -106.9733 320° Northwest 411 473 30,000  Level Salt Lake Center
10:22PM 43.2097 -107.0728 320° Northwest 406 467 30,000  Level Salt Lake Center
10:23PM 43.2958 -107.1725 320° Northwest 406 467 30,000  Level Salt Lake Center
10:24PM 43.3817 -107.2719 320° Northwest 404 465 30,000  Level Salt Lake Center
10:26PM 43.4669 -107.3711 320° Northwest 402 463 30,000  Level Salt Lake Center
10:27PM 43.5517 -107.4706 320° Northwest 402 463 30,000  Level Salt Lake Center
10:28PM 43.6364 -107.5728 319° Northwest 403 464 30,000  Level Salt Lake Center
10:29PM 43.7222 -107.6731 320° Northwest 404 465 30,000  Level Salt Lake Center
10:30PM 43.8253 -107.7961 319° Northwest 408 470 30,000  Level Salt Lake Center
10:31PM 43.9119 -107.8981 320° Northwest 407 468 30,000  Level Salt Lake Center
10:32PM 43.9975 -108.0025 319° Northwest 411 473 30,000 -840 Level Salt Lake Center
10:33PM 44.0731 -108.1172 313° West 404 465 28,300 -2,040 Descending Salt Lake Center
10:34PM 44.1442 -108.2258 312° West 383 441 25,900 -2,400 Descending Salt Lake Center
10:35PM 44.2144 -108.3331 312° West 374 430 23,400 -2,460 Descending Salt Lake Center
10:36PM 44.2803 -108.4364 312° West 361 415 20,900 -2,820 Descending Salt Lake Center
10:37PM 44.3461 -108.5356 313° West 352 405 17,700 -3,360 Descending Salt Lake Center
10:38PM 44.4072 -108.6311 312° West 339 390 14,100 -3,660 Descending Salt Lake Center
10:39PM 44.4703 -108.7150 317° Northwest 328 377 10,200 -3,840 Descending Salt Lake Center